BKE weather

Pista Brekamaje
Mexicali, Baja California, Mexico

Public forecast

Using degrees Celsius for public forecast. Weather courtesy of forecast.io.

METAR (pilot weather report)

Closest report is General Rodolfo Sánchez Taboada International Airport, 13.3 nm (24.6 km) NNW. Retrieved 2019/08/20 01:42 UTC (14 minutes ago):

MMML 200142Z 14006KT 10SM SKC 40/05 A2971

TAF (pilot weather forecast)

Forecast is more than 6 hours old.

Closest forecast is General Rodolfo Sánchez Taboada International Airport, 13.3 nm (24.6 km) NNW. Retrieved 2019/08/19 18:36 UTC (7 hours ago):

TAF MMML 191629Z 1918/2018 20012KT P6SM SKC FM200300 00000KT P6SM SKC